sensor_id;sensor_type;location;lat;lon;timestamp;pressure;altitude;pressure_sealevel;temperature;humidity
13767;BME280;47980;48.794;9.176;2023-08-21T00:02:41;98731.38;;;26.39;74.93
13767;BME280;47980;48.794;9.176;2023-08-21T00:06:10;98726.41;;;26.34;75.53
13767;BME280;47980;48.794;9.176;2023-08-21T00:08:44;98732.50;;;26.42;75.09
13767;BME280;47980;48.794;9.176;2023-08-21T00:11:16;98725.59;;;26.37;74.72
13767;BME280;47980;48.794;9.176;2023-08-21T00:13:47;98727.78;;;26.23;76.26
13767;BME280;47980;48.794;9.176;2023-08-21T00:16:21;98734.53;;;26.14;76.91
13767;BME280;47980;48.794;9.176;2023-08-21T00:18:52;98725.69;;;26.07;78.12
13767;BME280;47980;48.794;9.176;2023-08-21T00:21:24;98724.88;;;26.10;78.29
13767;BME280;47980;48.794;9.176;2023-08-21T00:23:55;98730.09;;;26.01;76.97
13767;BME280;47980;48.794;9.176;2023-08-21T00:26:27;98722.88;;;25.90;77.93
13767;BME280;47980;48.794;9.176;2023-08-21T00:28:58;98728.59;;;25.96;77.88
13767;BME280;47980;48.794;9.176;2023-08-21T00:31:31;98721.69;;;25.91;77.40
13767;BME280;47980;48.794;9.176;2023-08-21T00:34:03;98723.53;;;25.98;78.08
13767;BME280;47980;48.794;9.176;2023-08-21T00:36:34;98718.03;;;26.02;78.94
13767;BME280;47980;48.794;9.176;2023-08-21T00:39:06;98723.88;;;26.00;78.99
13767;BME280;47980;48.794;9.176;2023-08-21T00:41:37;98721.22;;;25.97;78.43
13767;BME280;47980;48.794;9.176;2023-08-21T00:44:09;98718.03;;;26.02;78.28
13767;BME280;47980;48.794;9.176;2023-08-21T00:46:42;98717.91;;;26.09;77.26
13767;BME280;47980;48.794;9.176;2023-08-21T00:49:14;98715.00;;;25.96;78.95
13767;BME280;47980;48.794;9.176;2023-08-21T00:51:46;98712.81;;;25.87;80.14
13767;BME280;47980;48.794;9.176;2023-08-21T00:54:19;98707.00;;;25.85;80.81
13767;BME280;47980;48.794;9.176;2023-08-21T00:56:50;98706.59;;;25.87;80.40
13767;BME280;47980;48.794;9.176;2023-08-21T00:59:22;98704.91;;;25.97;79.51
13767;BME280;47980;48.794;9.176;2023-08-21T01:01:56;98706.50;;;25.94;79.71
13767;BME280;47980;48.794;9.176;2023-08-21T01:04:27;98704.97;;;25.93;79.62
13767;BME280;47980;48.794;9.176;2023-08-21T01:06:59;98704.00;;;25.80;80.84
13767;BME280;47980;48.794;9.176;2023-08-21T01:09:35;98708.44;;;25.66;81.78
13767;BME280;47980;48.794;9.176;2023-08-21T01:12:18;98705.41;;;25.61;82.87
13767;BME280;47980;48.794;9.176;2023-08-21T01:14:58;98704.75;;;25.53;84.00
13767;BME280;47980;48.794;9.176;2023-08-21T01:17:33;98705.97;;;25.49;84.32
13767;BME280;47980;48.794;9.176;2023-08-21T01:20:07;98704.13;;;25.42;84.54
13767;BME280;47980;48.794;9.176;2023-08-21T01:22:41;98710.38;;;25.39;84.95
13767;BME280;47980;48.794;9.176;2023-08-21T01:25:17;98701.13;;;25.33;85.24
13767;BME280;47980;48.794;9.176;2023-08-21T01:27:50;98703.09;;;25.32;84.40
13767;BME280;47980;48.794;9.176;2023-08-21T01:30:22;98710.53;;;25.28;84.55
13767;BME280;47980;48.794;9.176;2023-08-21T01:32:59;98714.88;;;25.22;85.08
13767;BME280;47980;48.794;9.176;2023-08-21T01:35:33;98711.72;;;25.24;83.96
13767;BME280;47980;48.794;9.176;2023-08-21T01:38:05;98714.13;;;25.18;84.22
13767;BME280;47980;48.794;9.176;2023-08-21T01:40:39;98713.63;;;25.27;83.48
13767;BME280;47980;48.794;9.176;2023-08-21T01:43:11;98716.34;;;25.27;83.12
13767;BME280;47980;48.794;9.176;2023-08-21T01:45:42;98711.38;;;25.21;84.98
13767;BME280;47980;48.794;9.176;2023-08-21T01:48:14;98703.31;;;25.14;85.05
13767;BME280;47980;48.794;9.176;2023-08-21T01:50:45;98704.41;;;25.20;85.13
13767;BME280;47980;48.794;9.176;2023-08-21T01:53:17;98705.63;;;25.16;84.96
13767;BME280;47980;48.794;9.176;2023-08-21T01:55:50;98706.09;;;25.11;85.41
13767;BME280;47980;48.794;9.176;2023-08-21T01:58:21;98710.25;;;25.19;84.72
13767;BME280;47980;48.794;9.176;2023-08-21T02:00:54;98704.91;;;25.12;85.92
13767;BME280;47980;48.794;9.176;2023-08-21T02:03:26;98704.56;;;25.06;86.75
13767;BME280;47980;48.794;9.176;2023-08-21T02:05:57;98705.38;;;25.03;86.78
13767;BME280;47980;48.794;9.176;2023-08-21T02:08:31;98702.09;;;25.19;86.93
13767;BME280;47980;48.794;9.176;2023-08-21T02:11:05;98708.34;;;25.16;89.17
13767;BME280;47980;48.794;9.176;2023-08-21T02:13:36;98701.44;;;25.08;89.47
13767;BME280;47980;48.794;9.176;2023-08-21T02:16:08;98704.19;;;25.04;89.87
13767;BME280;47980;48.794;9.176;2023-08-21T02:18:40;98704.72;;;24.92;90.31
13767;BME280;47980;48.794;9.176;2023-08-21T02:21:12;98702.81;;;24.89;90.71
13767;BME280;47980;48.794;9.176;2023-08-21T02:23:43;98696.94;;;24.94;90.80
13767;BME280;47980;48.794;9.176;2023-08-21T02:26:16;98698.19;;;24.86;91.11
13767;BME280;47980;48.794;9.176;2023-08-21T02:28:48;98702.53;;;24.80;91.81
13767;BME280;47980;48.794;9.176;2023-08-21T02:31:19;98709.91;;;24.79;90.20
13767;BME280;47980;48.794;9.176;2023-08-21T02:33:51;98706.63;;;24.61;92.25
13767;BME280;47980;48.794;9.176;2023-08-21T02:36:22;98700.41;;;24.60;91.57
13767;BME280;47980;48.794;9.176;2023-08-21T02:38:55;98704.97;;;24.70;90.60
13767;BME280;47980;48.794;9.176;2023-08-21T02:41:28;98698.00;;;24.69;90.91
13767;BME280;47980;48.794;9.176;2023-08-21T02:44:00;98713.50;;;24.69;91.03
13767;BME280;47980;48.794;9.176;2023-08-21T02:46:31;98707.06;;;24.56;91.93
13767;BME280;47980;48.794;9.176;2023-08-21T02:49:03;98716.06;;;24.45;92.46
13767;BME280;47980;48.794;9.176;2023-08-21T02:51:35;98712.16;;;24.50;92.02
13767;BME280;47980;48.794;9.176;2023-08-21T02:54:07;98708.34;;;24.44;92.95
13767;BME280;47980;48.794;9.176;2023-08-21T02:56:40;98712.63;;;24.41;92.52
13767;BME280;47980;48.794;9.176;2023-08-21T02:59:13;98712.09;;;24.54;92.44
13767;BME280;47980;48.794;9.176;2023-08-21T03:01:44;98707.91;;;24.49;92.36
13767;BME280;47980;48.794;9.176;2023-08-21T03:04:16;98703.66;;;24.48;92.07
13767;BME280;47980;48.794;9.176;2023-08-21T03:06:47;98707.47;;;24.50;91.59
13767;BME280;47980;48.794;9.176;2023-08-21T03:09:19;98714.56;;;24.41;92.07
13767;BME280;47980;48.794;9.176;2023-08-21T03:11:52;98709.94;;;24.34;92.89
13767;BME280;47980;48.794;9.176;2023-08-21T03:14:24;98708.09;;;24.24;92.91
13767;BME280;47980;48.794;9.176;2023-08-21T03:16:56;98709.63;;;24.25;93.72
13767;BME280;47980;48.794;9.176;2023-08-21T03:19:27;98714.28;;;24.24;94.25
13767;BME280;47980;48.794;9.176;2023-08-21T03:21:59;98713.09;;;24.29;94.24
13767;BME280;47980;48.794;9.176;2023-08-21T03:24:30;98708.44;;;24.30;94.06
13767;BME280;47980;48.794;9.176;2023-08-21T03:27:03;98721.22;;;24.29;94.85
13767;BME280;47980;48.794;9.176;2023-08-21T03:29:35;98717.03;;;24.21;95.04
13767;BME280;47980;48.794;9.176;2023-08-21T03:32:06;98715.94;;;24.15;95.51
13767;BME280;47980;48.794;9.176;2023-08-21T03:34:38;98712.31;;;24.29;94.96
13767;BME280;47980;48.794;9.176;2023-08-21T03:37:10;98711.16;;;24.30;94.55
13767;BME280;47980;48.794;9.176;2023-08-21T03:39:43;98720.19;;;24.16;96.34
13767;BME280;47980;48.794;9.176;2023-08-21T03:42:16;98714.28;;;24.24;96.04
13767;BME280;47980;48.794;9.176;2023-08-21T03:44:48;98715.50;;;24.20;95.68
13767;BME280;47980;48.794;9.176;2023-08-21T03:47:20;98716.69;;;24.19;95.71
13767;BME280;47980;48.794;9.176;2023-08-21T03:49:52;98713.28;;;24.08;96.87
13767;BME280;47980;48.794;9.176;2023-08-21T03:52:23;98724.53;;;24.02;97.00
13767;BME280;47980;48.794;9.176;2023-08-21T03:54:54;98718.75;;;24.00;97.54
13767;BME280;47980;48.794;9.176;2023-08-21T03:57:28;98724.19;;;24.00;98.37
13767;BME280;47980;48.794;9.176;2023-08-21T03:59:59;98723.41;;;24.00;99.74
13767;BME280;47980;48.794;9.176;2023-08-21T04:02:31;98736.59;;;23.98;99.20
13767;BME280;47980;48.794;9.176;2023-08-21T04:05:03;98731.19;;;23.94;99.26
13767;BME280;47980;48.794;9.176;2023-08-21T04:07:34;98737.75;;;23.97;99.54
13767;BME280;47980;48.794;9.176;2023-08-21T04:10:07;98739.31;;;23.98;99.00
13767;BME280;47980;48.794;9.176;2023-08-21T04:12:39;98740.84;;;23.95;98.25
13767;BME280;47980;48.794;9.176;2023-08-21T04:15:11;98745.19;;;23.86;99.05
13767;BME280;47980;48.794;9.176;2023-08-21T04:17:43;98749.06;;;23.85;97.66
13767;BME280;47980;48.794;9.176;2023-08-21T04:20:15;98747.16;;;23.78;96.99
13767;BME280;47980;48.794;9.176;2023-08-21T04:22:49;98740.63;;;23.72;97.18
13767;BME280;47980;48.794;9.176;2023-08-21T04:25:20;98748.78;;;23.68;96.23
13767;BME280;47980;48.794;9.176;2023-08-21T04:27:53;98752.63;;;23.64;96.27
13767;BME280;47980;48.794;9.176;2023-08-21T04:30:25;98753.44;;;23.64;96.43
13767;BME280;47980;48.794;9.176;2023-08-21T04:32:56;98758.03;;;23.74;94.34
13767;BME280;47980;48.794;9.176;2023-08-21T04:35:29;98759.63;;;23.68;95.63
13767;BME280;47980;48.794;9.176;2023-08-21T04:38:00;98752.59;;;23.74;95.85
13767;BME280;47980;48.794;9.176;2023-08-21T04:40:32;98756.50;;;23.70;95.51
13767;BME280;47980;48.794;9.176;2023-08-21T04:43:04;98759.59;;;23.75;95.54
13767;BME280;47980;48.794;9.176;2023-08-21T04:45:36;98761.09;;;23.84;95.72
13767;BME280;47980;48.794;9.176;2023-08-21T04:48:08;98759.13;;;23.88;95.08
13767;BME280;47980;48.794;9.176;2023-08-21T04:50:39;98764.84;;;24.00;94.64
13767;BME280;47980;48.794;9.176;2023-08-21T04:53:11;98752.81;;;24.05;95.45
13767;BME280;47980;48.794;9.176;2023-08-21T04:55:43;98752.72;;;24.16;95.26
13767;BME280;47980;48.794;9.176;2023-08-21T04:58:16;98754.53;;;24.33;94.94
13767;BME280;47980;48.794;9.176;2023-08-21T05:00:47;98754.84;;;24.42;94.37
13767;BME280;47980;48.794;9.176;2023-08-21T05:03:19;98754.44;;;24.47;92.84
13767;BME280;47980;48.794;9.176;2023-08-21T05:05:54;98766.22;;;24.71;91.58
13767;BME280;47980;48.794;9.176;2023-08-21T05:08:26;98763.00;;;24.84;90.79
13767;BME280;47980;48.794;9.176;2023-08-21T05:10:58;98770.50;;;25.07;91.44
13767;BME280;47980;48.794;9.176;2023-08-21T05:13:31;98762.41;;;25.03;91.12
13767;BME280;47980;48.794;9.176;2023-08-21T05:16:03;98769.78;;;25.03;91.27
13767;BME280;47980;48.794;9.176;2023-08-21T05:18:35;98769.03;;;24.98;91.06
13767;BME280;47980;48.794;9.176;2023-08-21T05:21:07;98768.50;;;25.14;91.20
13767;BME280;47980;48.794;9.176;2023-08-21T05:23:39;98774.53;;;25.29;90.83
13767;BME280;47980;48.794;9.176;2023-08-21T05:26:10;98775.94;;;25.07;91.77
13767;BME280;47980;48.794;9.176;2023-08-21T05:28:46;98773.84;;;25.21;89.39
13767;BME280;47980;48.794;9.176;2023-08-21T05:31:17;98786.41;;;25.42;89.68
13767;BME280;47980;48.794;9.176;2023-08-21T05:33:49;98785.34;;;25.63;87.88
13767;BME280;47980;48.794;9.176;2023-08-21T05:36:20;98776.94;;;25.85;85.83
13767;BME280;47980;48.794;9.176;2023-08-21T05:38:52;98779.31;;;25.83;85.34
13767;BME280;47980;48.794;9.176;2023-08-21T05:41:23;98779.44;;;25.99;85.44
13767;BME280;47980;48.794;9.176;2023-08-21T05:43:56;98775.78;;;25.86;85.01
13767;BME280;47980;48.794;9.176;2023-08-21T05:46:28;98778.72;;;26.22;84.24
13767;BME280;47980;48.794;9.176;2023-08-21T05:48:59;98784.63;;;26.17;82.71
13767;BME280;47980;48.794;9.176;2023-08-21T05:51:31;98783.38;;;26.22;82.78
13767;BME280;47980;48.794;9.176;2023-08-21T05:54:02;98788.44;;;26.47;80.96
13767;BME280;47980;48.794;9.176;2023-08-21T05:56:34;98789.22;;;26.47;81.69
13767;BME280;47980;48.794;9.176;2023-08-21T05:59:31;98790.28;;;26.53;81.99
13767;BME280;47980;48.794;9.176;2023-08-21T06:02:03;98791.88;;;26.74;79.16
13767;BME280;47980;48.794;9.176;2023-08-21T06:04:34;98791.16;;;26.70;79.44
13767;BME280;47980;48.794;9.176;2023-08-21T06:07:06;98798.72;;;26.82;78.88
13767;BME280;47980;48.794;9.176;2023-08-21T06:09:38;98789.09;;;26.98;78.44
13767;BME280;47980;48.794;9.176;2023-08-21T06:12:10;98798.78;;;26.79;78.04
13767;BME280;47980;48.794;9.176;2023-08-21T06:14:43;98794.66;;;26.71;79.33
13767;BME280;47980;48.794;9.176;2023-08-21T06:17:14;98792.16;;;26.56;80.18
13767;BME280;47980;48.794;9.176;2023-08-21T06:19:46;98792.16;;;26.80;78.44
13767;BME280;47980;48.794;9.176;2023-08-21T06:22:17;98795.66;;;27.24;75.17
13767;BME280;47980;48.794;9.176;2023-08-21T06:24:49;98795.28;;;27.22;73.97
13767;BME280;47980;48.794;9.176;2023-08-21T06:27:20;98798.16;;;27.34;72.49
13767;BME280;47980;48.794;9.176;2023-08-21T06:29:55;98794.50;;;27.61;71.17
13767;BME280;47980;48.794;9.176;2023-08-21T06:32:26;98798.28;;;27.47;71.74
13767;BME280;47980;48.794;9.176;2023-08-21T06:34:58;98804.47;;;27.68;70.81
13767;BME280;47980;48.794;9.176;2023-08-21T06:37:30;98805.72;;;27.83;70.01
13767;BME280;47980;48.794;9.176;2023-08-21T06:40:01;98798.09;;;27.74;69.37
13767;BME280;47980;48.794;9.176;2023-08-21T06:42:34;98797.72;;;27.92;69.92
13767;BME280;47980;48.794;9.176;2023-08-21T06:45:09;98801.75;;;28.20;69.16
13767;BME280;47980;48.794;9.176;2023-08-21T06:47:40;98808.13;;;27.97;69.70
13767;BME280;47980;48.794;9.176;2023-08-21T06:50:12;98799.75;;;27.88;70.36
13767;BME280;47980;48.794;9.176;2023-08-21T06:52:44;98799.78;;;28.21;68.28
13767;BME280;47980;48.794;9.176;2023-08-21T06:55:15;98803.97;;;27.93;70.62
13767;BME280;47980;48.794;9.176;2023-08-21T06:57:47;98806.88;;;28.18;67.75
13767;BME280;47980;48.794;9.176;2023-08-21T07:00:20;98805.53;;;28.43;68.09
13767;BME280;47980;48.794;9.176;2023-08-21T07:02:54;98814.97;;;27.89;71.20
13767;BME280;47980;48.794;9.176;2023-08-21T07:05:28;98802.88;;;28.55;68.29
13767;BME280;47980;48.794;9.176;2023-08-21T07:08:00;98806.50;;;28.82;67.35
13767;BME280;47980;48.794;9.176;2023-08-21T07:10:35;98810.91;;;28.63;68.14
13767;BME280;47980;48.794;9.176;2023-08-21T07:13:07;98811.41;;;28.58;67.24
13767;BME280;47980;48.794;9.176;2023-08-21T07:15:41;98816.75;;;28.77;67.87
13767;BME280;47980;48.794;9.176;2023-08-21T07:18:14;98810.06;;;28.95;66.36
13767;BME280;47980;48.794;9.176;2023-08-21T07:20:48;98805.06;;;28.77;66.73
13767;BME280;47980;48.794;9.176;2023-08-21T07:23:19;98808.50;;;28.94;66.84
13767;BME280;47980;48.794;9.176;2023-08-21T07:25:51;98808.50;;;29.10;65.99
13767;BME280;47980;48.794;9.176;2023-08-21T07:28:23;98807.75;;;29.10;66.25
13767;BME280;47980;48.794;9.176;2023-08-21T07:31:10;98808.28;;;29.46;65.83
13767;BME280;47980;48.794;9.176;2023-08-21T07:33:42;98817.03;;;29.54;64.69
13767;BME280;47980;48.794;9.176;2023-08-21T07:36:13;98809.69;;;29.38;65.74
13767;BME280;47980;48.794;9.176;2023-08-21T07:38:47;98808.13;;;29.24;65.65
13767;BME280;47980;48.794;9.176;2023-08-21T07:41:18;98816.34;;;29.08;67.12
13767;BME280;47980;48.794;9.176;2023-08-21T07:43:50;98809.28;;;29.53;65.01
13767;BME280;47980;48.794;9.176;2023-08-21T07:46:23;98808.69;;;29.87;62.90
13767;BME280;47980;48.794;9.176;2023-08-21T07:48:55;98806.81;;;29.84;63.41
13767;BME280;47980;48.794;9.176;2023-08-21T07:51:26;98812.06;;;29.91;63.99
13767;BME280;47980;48.794;9.176;2023-08-21T07:53:57;98817.31;;;30.11;61.18
13767;BME280;47980;48.794;9.176;2023-08-21T07:56:29;98819.88;;;30.18;61.16
13767;BME280;47980;48.794;9.176;2023-08-21T07:59:01;98824.22;;;30.41;59.47
13767;BME280;47980;48.794;9.176;2023-08-21T08:01:34;98822.13;;;29.81;61.55
13767;BME280;47980;48.794;9.176;2023-08-21T08:04:06;98824.03;;;30.23;61.14
13767;BME280;47980;48.794;9.176;2023-08-21T08:06:37;98819.63;;;30.38;59.81
13767;BME280;47980;48.794;9.176;2023-08-21T08:09:09;98818.38;;;30.52;60.62
13767;BME280;47980;48.794;9.176;2023-08-21T08:11:40;98815.47;;;30.81;60.18
13767;BME280;47980;48.794;9.176;2023-08-21T08:14:12;98824.16;;;30.66;58.61
13767;BME280;47980;48.794;9.176;2023-08-21T08:16:45;98822.28;;;30.63;58.58
13767;BME280;47980;48.794;9.176;2023-08-21T08:19:16;98819.50;;;31.11;57.13
13767;BME280;47980;48.794;9.176;2023-08-21T08:21:48;98817.75;;;30.82;59.41
13767;BME280;47980;48.794;9.176;2023-08-21T08:24:19;98815.50;;;31.03;58.36
13767;BME280;47980;48.794;9.176;2023-08-21T08:26:51;98818.66;;;31.36;58.41
13767;BME280;47980;48.794;9.176;2023-08-21T08:29:22;98827.00;;;30.63;57.35
13767;BME280;47980;48.794;9.176;2023-08-21T08:31:55;98828.75;;;30.69;57.35
13767;BME280;47980;48.794;9.176;2023-08-21T08:34:27;98824.84;;;30.92;56.33
13767;BME280;47980;48.794;9.176;2023-08-21T08:36:58;98825.25;;;30.69;58.62
13767;BME280;47980;48.794;9.176;2023-08-21T08:39:30;98815.78;;;30.83;58.48
13767;BME280;47980;48.794;9.176;2023-08-21T08:42:03;98821.53;;;30.63;57.40
13767;BME280;47980;48.794;9.176;2023-08-21T08:44:36;98815.34;;;30.24;58.40
13767;BME280;47980;48.794;9.176;2023-08-21T08:47:10;98821.34;;;30.44;58.36
13767;BME280;47980;48.794;9.176;2023-08-21T08:49:42;98819.31;;;30.23;58.26
13767;BME280;47980;48.794;9.176;2023-08-21T08:52:14;98818.75;;;30.41;57.48
13767;BME280;47980;48.794;9.176;2023-08-21T08:54:48;98813.28;;;30.76;56.88
13767;BME280;47980;48.794;9.176;2023-08-21T08:57:19;98817.09;;;31.13;56.83
13767;BME280;47980;48.794;9.176;2023-08-21T08:59:51;98816.41;;;31.44;55.71
13767;BME280;47980;48.794;9.176;2023-08-21T09:02:25;98824.38;;;31.51;54.78
13767;BME280;47980;48.794;9.176;2023-08-21T09:04:57;98823.28;;;31.26;55.26
13767;BME280;47980;48.794;9.176;2023-08-21T09:07:31;98821.47;;;30.88;56.35
13767;BME280;47980;48.794;9.176;2023-08-21T09:10:04;98814.38;;;31.13;55.81
13767;BME280;47980;48.794;9.176;2023-08-21T09:12:37;98817.84;;;31.57;55.55
13767;BME280;47980;48.794;9.176;2023-08-21T09:15:10;98820.69;;;31.76;54.38
13767;BME280;47980;48.794;9.176;2023-08-21T09:17:42;98821.19;;;31.52;54.27
13767;BME280;47980;48.794;9.176;2023-08-21T09:20:14;98821.00;;;32.09;52.48
13767;BME280;47980;48.794;9.176;2023-08-21T09:22:53;98809.25;;;31.77;52.94
13767;BME280;47980;48.794;9.176;2023-08-21T09:25:25;98808.63;;;32.04;52.37
13767;BME280;47980;48.794;9.176;2023-08-21T09:27:57;98814.47;;;32.16;52.33
13767;BME280;47980;48.794;9.176;2023-08-21T09:30:30;98813.69;;;32.15;52.09
13767;BME280;47980;48.794;9.176;2023-08-21T09:33:16;98814.97;;;32.32;51.47
13767;BME280;47980;48.794;9.176;2023-08-21T09:35:49;98809.31;;;32.27;51.59
13767;BME280;47980;48.794;9.176;2023-08-21T09:38:22;98812.56;;;32.53;51.56
13767;BME280;47980;48.794;9.176;2023-08-21T09:40:55;98812.75;;;32.68;51.53
13767;BME280;47980;48.794;9.176;2023-08-21T09:43:27;98804.94;;;32.75;52.25
13767;BME280;47980;48.794;9.176;2023-08-21T09:46:00;98795.06;;;33.05;50.36
13767;BME280;47980;48.794;9.176;2023-08-21T09:48:35;98804.34;;;32.71;49.22
13767;BME280;47980;48.794;9.176;2023-08-21T09:51:07;98811.81;;;32.89;48.33
13767;BME280;47980;48.794;9.176;2023-08-21T09:53:40;98798.25;;;33.04;47.13
13767;BME280;47980;48.794;9.176;2023-08-21T09:56:12;98803.72;;;33.22;46.18
13767;BME280;47980;48.794;9.176;2023-08-21T09:58:46;98800.38;;;33.18;46.57
13767;BME280;47980;48.794;9.176;2023-08-21T10:01:20;98796.88;;;33.09;47.04
13767;BME280;47980;48.794;9.176;2023-08-21T10:03:54;98803.13;;;32.81;48.09
13767;BME280;47980;48.794;9.176;2023-08-21T10:06:26;98794.91;;;33.09;49.03
13767;BME280;47980;48.794;9.176;2023-08-21T10:08:58;98795.63;;;32.82;47.66
13767;BME280;47980;48.794;9.176;2023-08-21T10:11:30;98792.28;;;32.78;48.46
13767;BME280;47980;48.794;9.176;2023-08-21T10:14:02;98792.91;;;32.73;47.68
13767;BME280;47980;48.794;9.176;2023-08-21T10:16:34;98783.72;;;32.67;47.51
13767;BME280;47980;48.794;9.176;2023-08-21T10:19:07;98778.38;;;32.91;48.36
13767;BME280;47980;48.794;9.176;2023-08-21T10:21:39;98778.22;;;32.85;47.76
13767;BME280;47980;48.794;9.176;2023-08-21T10:24:10;98773.66;;;33.10;48.94
13767;BME280;47980;48.794;9.176;2023-08-21T10:26:42;98764.19;;;33.01;47.38
13767;BME280;47980;48.794;9.176;2023-08-21T10:29:15;98766.16;;;32.82;48.45
13767;BME280;47980;48.794;9.176;2023-08-21T10:31:58;98761.59;;;32.79;48.62
13767;BME280;47980;48.794;9.176;2023-08-21T10:34:33;98771.66;;;33.19;49.51
13767;BME280;47980;48.794;9.176;2023-08-21T10:37:07;98761.75;;;32.76;49.37
13767;BME280;47980;48.794;9.176;2023-08-21T10:39:54;98773.06;;;32.69;49.17
13767;BME280;47980;48.794;9.176;2023-08-21T10:42:47;98758.66;;;33.20;48.40
13767;BME280;47980;48.794;9.176;2023-08-21T10:45:19;98758.06;;;33.06;48.26
13767;BME280;47980;48.794;9.176;2023-08-21T10:47:50;98759.25;;;33.24;47.93
13767;BME280;47980;48.794;9.176;2023-08-21T10:50:23;98763.69;;;33.30;47.39
13767;BME280;47980;48.794;9.176;2023-08-21T10:52:55;98761.75;;;32.94;48.44
13767;BME280;47980;48.794;9.176;2023-08-21T10:55:26;98758.22;;;32.84;48.34
13767;BME280;47980;48.794;9.176;2023-08-21T10:57:58;98754.41;;;33.00;48.07
13767;BME280;47980;48.794;9.176;2023-08-21T11:00:29;98758.47;;;33.33;46.58
13767;BME280;47980;48.794;9.176;2023-08-21T11:03:01;98757.53;;;33.36;46.62
13767;BME280;47980;48.794;9.176;2023-08-21T11:05:34;98754.38;;;33.19;46.64
13767;BME280;47980;48.794;9.176;2023-08-21T11:08:06;98752.19;;;33.41;46.25
13767;BME280;47980;48.794;9.176;2023-08-21T11:10:38;98750.31;;;33.57;45.83
13767;BME280;47980;48.794;9.176;2023-08-21T11:13:11;98748.69;;;33.22;46.31
13767;BME280;47980;48.794;9.176;2023-08-21T11:15:45;98752.53;;;33.25;46.36
13767;BME280;47980;48.794;9.176;2023-08-21T11:18:16;98755.59;;;33.27;46.61
13767;BME280;47980;48.794;9.176;2023-08-21T11:21:04;98756.50;;;33.15;47.91
13767;BME280;47980;48.794;9.176;2023-08-21T11:23:37;98757.31;;;32.97;47.80
13767;BME280;47980;48.794;9.176;2023-08-21T11:26:10;98757.00;;;32.86;47.02
13767;BME280;47980;48.794;9.176;2023-08-21T11:28:42;98758.22;;;32.57;48.19
13767;BME280;47980;48.794;9.176;2023-08-21T11:31:14;98752.16;;;31.94;49.68
13767;BME280;47980;48.794;9.176;2023-08-21T11:33:49;98755.56;;;32.17;49.07
13767;BME280;47980;48.794;9.176;2023-08-21T11:36:22;98745.41;;;32.63;47.67
13767;BME280;47980;48.794;9.176;2023-08-21T11:39:01;98737.41;;;33.11;46.34
13767;BME280;47980;48.794;9.176;2023-08-21T11:41:54;98743.88;;;32.80;47.00
13767;BME280;47980;48.794;9.176;2023-08-21T11:44:26;98736.53;;;32.77;46.84
13767;BME280;47980;48.794;9.176;2023-08-21T11:46:58;98739.00;;;33.45;46.78
13767;BME280;47980;48.794;9.176;2023-08-21T11:49:33;98735.84;;;33.38;46.50
13767;BME280;47980;48.794;9.176;2023-08-21T11:52:08;98738.41;;;33.41;45.04
13767;BME280;47980;48.794;9.176;2023-08-21T11:54:41;98743.28;;;32.95;46.83
13767;BME280;47980;48.794;9.176;2023-08-21T11:57:13;98741.09;;;33.17;46.14
13767;BME280;47980;48.794;9.176;2023-08-21T11:59:51;98729.59;;;33.28;46.18
13767;BME280;47980;48.794;9.176;2023-08-21T12:02:23;98729.72;;;33.76;45.87
13767;BME280;47980;48.794;9.176;2023-08-21T12:05:02;98729.34;;;34.16;45.17
13767;BME280;47980;48.794;9.176;2023-08-21T12:07:36;98731.06;;;33.81;45.40
13767;BME280;47980;48.794;9.176;2023-08-21T12:10:11;98728.06;;;33.69;45.89
13767;BME280;47980;48.794;9.176;2023-08-21T12:12:42;98725.09;;;33.82;45.23
13767;BME280;47980;48.794;9.176;2023-08-21T12:15:14;98720.22;;;34.10;44.26
13767;BME280;47980;48.794;9.176;2023-08-21T12:17:45;98723.63;;;34.05;45.44
13767;BME280;47980;48.794;9.176;2023-08-21T12:20:17;98725.94;;;33.97;44.52
13767;BME280;47980;48.794;9.176;2023-08-21T12:22:50;98721.78;;;34.26;43.89
13767;BME280;47980;48.794;9.176;2023-08-21T12:25:22;98711.19;;;34.10;45.46
13767;BME280;47980;48.794;9.176;2023-08-21T12:27:54;98724.16;;;34.18;43.91
13767;BME280;47980;48.794;9.176;2023-08-21T12:30:25;98719.69;;;34.60;43.86
13767;BME280;47980;48.794;9.176;2023-08-21T12:32:57;98716.75;;;34.24;44.63
13767;BME280;47980;48.794;9.176;2023-08-21T12:35:28;98712.13;;;33.40;45.72
13767;BME280;47980;48.794;9.176;2023-08-21T12:38:10;98708.50;;;33.25;46.15
13767;BME280;47980;48.794;9.176;2023-08-21T12:40:42;98710.22;;;33.13;46.23
13767;BME280;47980;48.794;9.176;2023-08-21T12:43:14;98708.94;;;33.33;45.57
13767;BME280;47980;48.794;9.176;2023-08-21T12:45:45;98706.56;;;33.07;46.48
13767;BME280;47980;48.794;9.176;2023-08-21T12:48:17;98701.09;;;32.98;46.18
13767;BME280;47980;48.794;9.176;2023-08-21T12:50:49;98702.16;;;33.00;46.82
13767;BME280;47980;48.794;9.176;2023-08-21T12:53:21;98699.72;;;33.02;46.68
13767;BME280;47980;48.794;9.176;2023-08-21T12:55:53;98700.47;;;33.03;45.88
13767;BME280;47980;48.794;9.176;2023-08-21T12:58:25;98694.75;;;33.25;46.41
13767;BME280;47980;48.794;9.176;2023-08-21T13:00:57;98684.38;;;33.20;47.06
13767;BME280;47980;48.794;9.176;2023-08-21T13:03:29;98691.13;;;33.10;46.06
13767;BME280;47980;48.794;9.176;2023-08-21T13:06:00;98680.91;;;33.76;44.92
13767;BME280;47980;48.794;9.176;2023-08-21T13:08:34;98680.28;;;34.30;44.43
13767;BME280;47980;48.794;9.176;2023-08-21T13:11:05;98677.94;;;34.13;44.56
13767;BME280;47980;48.794;9.176;2023-08-21T13:13:36;98680.75;;;34.28;44.62
13767;BME280;47980;48.794;9.176;2023-08-21T13:16:08;98683.97;;;34.80;43.30
13767;BME280;47980;48.794;9.176;2023-08-21T13:18:40;98688.94;;;34.37;44.48
13767;BME280;47980;48.794;9.176;2023-08-21T13:21:11;98683.78;;;33.58;45.20
13767;BME280;47980;48.794;9.176;2023-08-21T13:23:44;98685.97;;;34.02;45.54
13767;BME280;47980;48.794;9.176;2023-08-21T13:26:15;98685.97;;;34.26;45.78
13767;BME280;47980;48.794;9.176;2023-08-21T13:28:47;98679.44;;;34.38;44.80
13767;BME280;47980;48.794;9.176;2023-08-21T13:31:18;98675.28;;;34.04;45.58